Time;durP1;ratioP1;P1;durP2;ratioP2;P2;SDS_P1;SDS_P2;PMS_P1;PMS_P2;Temp;Humidity;BMP_temperature;BMP_pressure;BME280_temperature;BME280_humidity;BME280_pressure;Samples;Min_cycle;Max_cycle;Signal;HPM_P1;HPM_P2
2021/09/20 00:01:32;;;;;;;5.40;3.00;;;;;;;;;;4897047;29;20499;-59
2021/09/20 00:03:58;;;;;;;5.15;3.08;;;;;;;;;;4896943;29;20033;-59
2021/09/20 00:06:24;;;;;;;5.47;3.17;;;;;;;;;;4897203;29;20029;-59
2021/09/20 00:08:50;;;;;;;6.25;2.75;;;;;;;;;;4896544;29;20052;-60
2021/09/20 00:11:17;;;;;;;6.70;2.50;;;;;;;;;;4896917;29;20040;-58
2021/09/20 00:13:43;;;;;;;5.57;2.80;;;;;;;;;;4896574;29;20040;-58
2021/09/20 00:16:09;;;;;;;5.88;2.55;;;;;;;;;;4896595;29;20524;-58
2021/09/20 00:18:35;;;;;;;4.43;2.50;;;;;;;;;;4896716;29;20044;-56
2021/09/20 00:21:01;;;;;;;4.00;2.15;;;;;;;;;;4896839;29;20025;-59
2021/09/20 00:23:27;;;;;;;5.30;2.50;;;;;;;;;;4896506;29;20028;-61
2021/09/20 00:25:53;;;;;;;4.38;2.50;;;;;;;;;;4896603;29;20033;-58
2021/09/20 00:28:20;;;;;;;5.35;2.58;;;;;;;;;;4896518;29;20047;-59
2021/09/20 00:30:46;;;;;;;4.47;2.60;;;;;;;;;;4895736;29;20032;-57
2021/09/20 00:33:12;;;;;;;3.88;2.42;;;;;;;;;;4896472;29;20044;-57
2021/09/20 00:35:38;;;;;;;6.10;2.55;;;;;;;;;;4896651;29;20032;-59
2021/09/20 00:38:04;;;;;;;7.40;2.70;;;;;;;;;;4896530;29;20032;-60
2021/09/20 00:40:31;;;;;;;3.60;2.33;;;;;;;;;;4896677;29;20049;-59
2021/09/20 00:42:57;;;;;;;3.58;1.95;;;;;;;;;;4896210;29;20029;-64
2021/09/20 00:45:23;;;;;;;3.33;2.10;;;;;;;;;;4896275;29;20068;-58
2021/09/20 00:47:49;;;;;;;5.45;2.20;;;;;;;;;;4896140;29;20378;-57
2021/09/20 00:50:15;;;;;;;5.18;2.50;;;;;;;;;;4896250;29;20044;-59
2021/09/20 00:52:41;;;;;;;4.78;2.83;;;;;;;;;;4896186;29;20487;-57
2021/09/20 00:55:08;;;;;;;6.95;2.80;;;;;;;;;;4896247;29;20052;-58
2021/09/20 00:57:34;;;;;;;5.78;2.50;;;;;;;;;;4896031;29;20025;-59
2021/09/20 01:00:01;;;;;;;4.43;2.53;;;;;;;;;;4896203;29;20465;-56
2021/09/20 01:02:27;;;;;;;4.47;2.40;;;;;;;;;;4896129;29;20025;-57
2021/09/20 01:04:53;;;;;;;3.97;2.20;;;;;;;;;;4896015;29;20028;-58
2021/09/20 01:07:19;;;;;;;4.15;2.45;;;;;;;;;;4895492;29;20053;-57
2021/09/20 01:09:45;;;;;;;5.22;2.65;;;;;;;;;;4896089;29;20036;-59
2021/09/20 01:12:12;;;;;;;3.90;2.38;;;;;;;;;;4895864;29;20020;-59
2021/09/20 01:14:38;;;;;;;6.47;2.30;;;;;;;;;;4895765;29;20084;-66
2021/09/20 01:17:05;;;;;;;4.90;2.67;;;;;;;;;;4895824;29;20036;-59
2021/09/20 01:19:32;;;;;;;5.97;2.78;;;;;;;;;;4895935;29;20040;-57
2021/09/20 01:22:00;;;;;;;5.97;2.75;;;;;;;;;;4896124;29;20079;-59
2021/09/20 01:24:27;;;;;;;4.47;2.60;;;;;;;;;;4896069;29;20032;-56
2021/09/20 01:26:56;;;;;;;5.97;2.72;;;;;;;;;;4895896;29;20111;-58
2021/09/20 01:29:24;;;;;;;5.18;2.88;;;;;;;;;;4895890;29;20033;-61
2021/09/20 01:31:50;;;;;;;6.35;2.88;;;;;;;;;;4895786;29;20132;-59
2021/09/20 01:34:16;;;;;;;5.47;2.80;;;;;;;;;;4895556;29;20037;-60
2021/09/20 01:36:42;;;;;;;7.13;3.25;;;;;;;;;;4895559;29;20028;-64
2021/09/20 01:39:17;;;;;;;6.57;3.75;;;;;;;;;;4895558;29;20036;-58
2021/09/20 01:41:44;;;;;;;8.43;3.58;;;;;;;;;;4897145;29;20477;-58
2021/09/20 01:44:10;;;;;;;7.60;3.90;;;;;;;;;;4899370;29;20031;-58
2021/09/20 01:46:36;;;;;;;5.60;3.60;;;;;;;;;;4899307;29;20048;-58
2021/09/20 01:49:02;;;;;;;5.50;3.88;;;;;;;;;;4899307;29;20059;-57
2021/09/20 01:51:28;;;;;;;6.18;3.80;;;;;;;;;;4899645;29;20028;-59
2021/09/20 01:53:54;;;;;;;5.43;3.40;;;;;;;;;;4899148;29;20047;-58
2021/09/20 01:56:20;;;;;;;7.50;4.28;;;;;;;;;;4899153;29;20429;-57
2021/09/20 01:58:46;;;;;;;6.88;3.90;;;;;;;;;;4899553;29;20433;-58
2021/09/20 02:01:13;;;;;;;6.88;3.83;;;;;;;;;;4899923;29;20103;-59
2021/09/20 02:03:39;;;;;;;5.03;3.47;;;;;;;;;;4900965;29;20029;-60
2021/09/20 02:06:05;;;;;;;7.32;3.83;;;;;;;;;;4900396;29;20586;-58
2021/09/20 02:08:31;;;;;;;6.60;4.15;;;;;;;;;;4899057;29;20587;-58
2021/09/20 02:10:57;;;;;;;7.10;3.90;;;;;;;;;;4899322;29;20056;-57
2021/09/20 02:13:23;;;;;;;6.40;3.83;;;;;;;;;;4899020;29;20039;-59
2021/09/20 02:15:49;;;;;;;5.57;3.50;;;;;;;;;;4899227;29;20156;-56
2021/09/20 02:18:15;;;;;;;6.30;3.72;;;;;;;;;;4899020;29;20043;-59
2021/09/20 02:20:41;;;;;;;6.28;3.60;;;;;;;;;;4898968;29;20035;-58
2021/09/20 02:23:07;;;;;;;5.40;3.38;;;;;;;;;;4898837;29;20036;-59
2021/09/20 02:25:33;;;;;;;5.32;3.28;;;;;;;;;;4898713;29;20495;-58
2021/09/20 02:27:59;;;;;;;7.53;3.80;;;;;;;;;;4898680;29;20469;-58
2021/09/20 02:30:25;;;;;;;5.32;3.35;;;;;;;;;;4898557;29;20028;-58
2021/09/20 02:32:51;;;;;;;7.57;3.63;;;;;;;;;;4898285;29;20064;-58
2021/09/20 02:35:17;;;;;;;7.63;4.53;;;;;;;;;;4898751;29;20107;-58
2021/09/20 02:37:43;;;;;;;9.07;5.75;;;;;;;;;;4898367;29;20025;-63
2021/09/20 02:40:10;;;;;;;7.43;3.55;;;;;;;;;;4898455;29;20040;-57
2021/09/20 02:42:36;;;;;;;9.13;4.78;;;;;;;;;;4898440;29;20031;-57
2021/09/20 02:45:03;;;;;;;7.60;4.63;;;;;;;;;;4898202;29;20029;-57
2021/09/20 02:47:29;;;;;;;7.95;4.82;;;;;;;;;;4898336;29;20055;-57
2021/09/20 02:49:55;;;;;;;6.90;4.75;;;;;;;;;;4898132;29;20040;-60
2021/09/20 02:52:21;;;;;;;8.55;4.45;;;;;;;;;;4898209;29;20020;-58
2021/09/20 02:54:47;;;;;;;9.63;5.70;;;;;;;;;;4880751;29;20075;-66
2021/09/20 02:57:13;;;;;;;8.98;5.47;;;;;;;;;;4898058;29;20032;-57
2021/09/20 02:59:39;;;;;;;10.32;5.82;;;;;;;;;;4898230;29;20430;-63
2021/09/20 03:02:05;;;;;;;9.55;5.55;;;;;;;;;;4898180;29;20024;-58
2021/09/20 03:04:31;;;;;;;11.38;6.03;;;;;;;;;;4897867;29;20536;-65
2021/09/20 03:06:57;;;;;;;11.98;5.90;;;;;;;;;;4897956;29;20079;-59
2021/09/20 03:09:23;;;;;;;11.85;6.20;;;;;;;;;;4897951;29;20081;-63
2021/09/20 03:11:49;;;;;;;14.43;6.43;;;;;;;;;;4897988;29;20056;-61
2021/09/20 03:14:16;;;;;;;12.45;6.60;;;;;;;;;;4897886;29;20044;-57
2021/09/20 03:16:42;;;;;;;11.43;6.20;;;;;;;;;;4897842;29;20028;-57
2021/09/20 03:19:08;;;;;;;12.35;5.53;;;;;;;;;;4897657;29;20032;-65
2021/09/20 03:21:34;;;;;;;9.93;5.90;;;;;;;;;;4897694;29;20414;-61
2021/09/20 03:24:01;;;;;;;11.82;6.30;;;;;;;;;;4897991;29;20426;-62
2021/09/20 03:26:27;;;;;;;11.80;5.57;;;;;;;;;;4897761;29;20100;-57
2021/09/20 03:28:53;;;;;;;11.00;6.45;;;;;;;;;;4897715;29;20084;-57
2021/09/20 03:31:19;;;;;;;11.70;6.20;;;;;;;;;;4897779;29;20489;-60
2021/09/20 03:33:45;;;;;;;10.52;5.80;;;;;;;;;;4897652;29;20040;-58
2021/09/20 03:36:12;;;;;;;9.75;5.43;;;;;;;;;;4897506;29;20386;-57
2021/09/20 03:38:38;;;;;;;12.20;5.75;;;;;;;;;;4897604;29;20032;-57
2021/09/20 03:41:04;;;;;;;10.43;5.40;;;;;;;;;;4897525;29;20028;-57
2021/09/20 03:43:30;;;;;;;12.23;6.30;;;;;;;;;;4897337;29;20119;-58
2021/09/20 03:45:56;;;;;;;10.30;6.30;;;;;;;;;;4897252;29;20025;-60
2021/09/20 03:48:22;;;;;;;18.23;6.70;;;;;;;;;;4897205;29;20032;-57
2021/09/20 03:50:48;;;;;;;12.13;6.70;;;;;;;;;;4897244;29;20091;-57
2021/09/20 03:53:14;;;;;;;11.98;7.25;;;;;;;;;;4897159;29;20077;-57
2021/09/20 03:55:40;;;;;;;15.10;7.03;;;;;;;;;;4897442;29;20481;-58
2021/09/20 03:58:06;;;;;;;12.43;6.95;;;;;;;;;;4897267;29;20032;-58
2021/09/20 04:00:32;;;;;;;12.52;6.82;;;;;;;;;;4896490;29;20629;-57
2021/09/20 04:02:58;;;;;;;16.35;6.97;;;;;;;;;;4897327;29;20043;-57
2021/09/20 04:05:24;;;;;;;12.38;6.00;;;;;;;;;;4896702;29;20024;-57
2021/09/20 04:07:50;;;;;;;12.60;6.43;;;;;;;;;;4896696;29;20444;-57
2021/09/20 04:10:16;;;;;;;14.52;6.55;;;;;;;;;;4896697;29;20031;-58
2021/09/20 04:12:43;;;;;;;10.55;5.65;;;;;;;;;;4880031;29;20059;-57
2021/09/20 04:15:10;;;;;;;9.77;5.80;;;;;;;;;;4896650;29;20381;-65
2021/09/20 04:17:36;;;;;;;9.25;5.90;;;;;;;;;;4896939;29;20032;-58
2021/09/20 04:20:03;;;;;;;8.05;5.45;;;;;;;;;;4896417;29;20029;-58
2021/09/20 04:22:29;;;;;;;10.55;5.97;;;;;;;;;;4896589;29;20437;-57
2021/09/20 04:24:55;;;;;;;12.07;6.55;;;;;;;;;;4896923;29;20033;-58
2021/09/20 04:27:21;;;;;;;11.10;6.20;;;;;;;;;;4896669;29;20028;-57
2021/09/20 04:29:48;;;;;;;10.93;5.60;;;;;;;;;;4896506;29;20043;-57
2021/09/20 04:32:14;;;;;;;8.70;5.10;;;;;;;;;;4896510;29;20043;-57
2021/09/20 04:34:40;;;;;;;9.45;5.63;;;;;;;;;;4896410;29;20037;-57
2021/09/20 04:37:06;;;;;;;10.73;5.80;;;;;;;;;;4896066;29;20028;-57
2021/09/20 04:39:32;;;;;;;9.10;5.15;;;;;;;;;;4896750;29;20028;-57
2021/09/20 04:41:58;;;;;;;9.10;5.90;;;;;;;;;;4896409;29;20047;-57
2021/09/20 04:44:24;;;;;;;12.30;5.60;;;;;;;;;;4896277;29;20032;-67
2021/09/20 04:46:51;;;;;;;9.55;5.65;;;;;;;;;;4896459;29;20057;-57
2021/09/20 04:49:17;;;;;;;12.65;6.50;;;;;;;;;;4896147;29;20088;-58
2021/09/20 04:51:43;;;;;;;12.18;6.15;;;;;;;;;;4896368;29;20066;-59
2021/09/20 04:54:09;;;;;;;10.40;6.13;;;;;;;;;;4896295;29;20055;-61
2021/09/20 04:56:35;;;;;;;8.18;5.75;;;;;;;;;;4896286;29;20033;-58
2021/09/20 04:59:01;;;;;;;11.32;6.07;;;;;;;;;;4896184;29;20039;-58
2021/09/20 05:01:27;;;;;;;11.77;6.07;;;;;;;;;;4895945;29;20099;-58
2021/09/20 05:03:53;;;;;;;11.23;5.55;;;;;;;;;;4896209;29;20036;-58
2021/09/20 05:06:19;;;;;;;11.43;5.88;;;;;;;;;;4895923;29;20028;-59
2021/09/20 05:08:45;;;;;;;8.82;5.55;;;;;;;;;;4895709;29;20063;-61
2021/09/20 05:11:11;;;;;;;9.82;5.97;;;;;;;;;;4896061;29;20025;-68
2021/09/20 05:13:37;;;;;;;11.40;5.85;;;;;;;;;;4896049;29;20041;-58
2021/09/20 05:16:03;;;;;;;15.00;6.05;;;;;;;;;;4895477;29;20550;-58
2021/09/20 05:18:29;;;;;;;11.40;6.10;;;;;;;;;;4895813;29;20045;-59
2021/09/20 05:20:56;;;;;;;9.23;5.20;;;;;;;;;;4895882;29;20040;-59
2021/09/20 05:23:22;;;;;;;12.07;6.35;;;;;;;;;;4892988;29;20032;-61
2021/09/20 05:25:48;;;;;;;11.57;6.20;;;;;;;;;;4895897;29;20072;-59
2021/09/20 05:28:14;;;;;;;9.52;6.15;;;;;;;;;;4889889;29;20127;-59
2021/09/20 05:30:40;;;;;;;10.93;6.20;;;;;;;;;;4886530;29;20036;-59
2021/09/20 05:33:06;;;;;;;13.00;5.53;;;;;;;;;;4888376;29;20043;-59
2021/09/20 05:35:32;;;;;;;10.23;6.07;;;;;;;;;;4882246;29;20036;-59
2021/09/20 05:37:58;;;;;;;14.10;6.75;;;;;;;;;;4876833;29;20037;-61
2021/09/20 05:40:25;;;;;;;10.73;5.95;;;;;;;;;;4881323;29;20116;-59
2021/09/20 05:42:56;;;;;;;12.68;6.28;;;;;;;;;;4884147;29;20028;-59
2021/09/20 05:45:23;;;;;;;11.80;6.40;;;;;;;;;;4884198;29;20036;-59
2021/09/20 05:47:50;;;;;;;12.43;6.97;;;;;;;;;;4883670;29;20025;-60
2021/09/20 05:50:16;;;;;;;15.55;6.53;;;;;;;;;;4883613;29;20025;-63
2021/09/20 05:52:42;;;;;;;14.50;7.43;;;;;;;;;;4889231;29;20386;-58
2021/09/20 05:55:10;;;;;;;12.65;6.53;;;;;;;;;;4889399;29;20048;-60
2021/09/20 05:57:36;;;;;;;13.13;6.20;;;;;;;;;;4876866;29;20151;-66
2021/09/20 06:00:02;;;;;;;12.68;6.38;;;;;;;;;;4876842;29;20058;-62
2021/09/20 06:02:28;;;;;;;11.07;6.97;;;;;;;;;;4876826;29;20548;-59
2021/09/20 06:04:54;;;;;;;13.48;6.50;;;;;;;;;;4876938;29;20033;-58
2021/09/20 06:07:21;;;;;;;11.38;6.22;;;;;;;;;;4876387;29;21181;-60
2021/09/20 06:09:47;;;;;;;16.00;6.43;;;;;;;;;;4876799;29;20497;-59
2021/09/20 06:12:13;;;;;;;10.40;5.60;;;;;;;;;;4876875;29;20029;-58
2021/09/20 06:14:39;;;;;;;10.02;5.75;;;;;;;;;;4876607;29;20134;-59
2021/09/20 06:17:05;;;;;;;10.55;5.57;;;;;;;;;;4876778;29;20029;-58
2021/09/20 06:19:31;;;;;;;8.20;5.47;;;;;;;;;;4879350;29;20036;-60
2021/09/20 06:21:58;;;;;;;11.25;6.10;;;;;;;;;;4860095;29;20040;-60
2021/09/20 06:24:24;;;;;;;10.48;6.30;;;;;;;;;;4876893;29;20569;-58
2021/09/20 06:26:50;;;;;;;8.98;6.05;;;;;;;;;;4876418;29;20778;-60
2021/09/20 06:29:16;;;;;;;12.95;5.97;;;;;;;;;;4897204;29;20045;-62
2021/09/20 06:31:42;;;;;;;10.75;6.35;;;;;;;;;;4898555;29;20048;-60
2021/09/20 06:34:08;;;;;;;8.23;5.55;;;;;;;;;;4898448;29;20438;-60
2021/09/20 06:36:34;;;;;;;10.85;5.55;;;;;;;;;;4898347;29;20103;-60
2021/09/20 06:39:00;;;;;;;7.85;5.03;;;;;;;;;;4890154;29;20086;-60
2021/09/20 06:41:26;;;;;;;7.45;5.10;;;;;;;;;;4890080;29;20028;-59
2021/09/20 06:43:53;;;;;;;8.25;5.15;;;;;;;;;;4888493;29;20111;-60
2021/09/20 06:46:19;;;;;;;8.07;5.70;;;;;;;;;;4865235;29;20520;-61
2021/09/20 06:48:45;;;;;;;9.68;5.18;;;;;;;;;;4879675;29;20052;-61
2021/09/20 06:51:11;;;;;;;8.68;4.93;;;;;;;;;;4879774;29;20127;-61
2021/09/20 06:53:37;;;;;;;9.63;5.60;;;;;;;;;;4879244;29;20128;-57
2021/09/20 06:56:03;;;;;;;13.35;6.20;;;;;;;;;;4879594;29;20028;-58
2021/09/20 06:58:29;;;;;;;11.02;5.35;;;;;;;;;;4879494;29;20184;-58
2021/09/20 07:00:55;;;;;;;10.35;5.30;;;;;;;;;;4862805;29;20124;-59
2021/09/20 07:03:21;;;;;;;10.35;5.50;;;;;;;;;;4879457;29;20147;-59
2021/09/20 07:05:47;;;;;;;8.10;5.38;;;;;;;;;;4879326;29;20032;-58
2021/09/20 07:08:13;;;;;;;6.95;4.75;;;;;;;;;;4878929;29;20053;-58
2021/09/20 07:10:39;;;;;;;7.53;4.75;;;;;;;;;;4878862;29;20032;-61
2021/09/20 07:13:09;;;;;;;7.72;5.00;;;;;;;;;;4879264;29;20067;-56
2021/09/20 07:15:35;;;;;;;7.22;4.63;;;;;;;;;;4878707;29;20073;-57
2021/09/20 07:18:02;;;;;;;8.48;5.15;;;;;;;;;;4879015;29;20039;-58
2021/09/20 07:20:28;;;;;;;10.05;5.70;;;;;;;;;;4878602;29;20065;-57
2021/09/20 07:22:54;;;;;;;8.43;5.30;;;;;;;;;;4877980;29;20092;-57
2021/09/20 07:25:20;;;;;;;10.15;5.20;;;;;;;;;;4878575;29;20031;-57
2021/09/20 07:27:46;;;;;;;7.95;5.25;;;;;;;;;;4878493;29;20124;-59
2021/09/20 07:30:17;;;;;;;7.25;4.70;;;;;;;;;;4877630;29;20052;-60
2021/09/20 07:32:43;;;;;;;12.00;5.93;;;;;;;;;;4878431;29;20071;-59
2021/09/20 07:35:10;;;;;;;10.68;5.50;;;;;;;;;;4878514;29;20029;-61
2021/09/20 07:37:36;;;;;;;10.45;5.68;;;;;;;;;;4878622;29;20048;-62
2021/09/20 07:40:02;;;;;;;8.80;5.30;;;;;;;;;;4877834;29;20040;-60
2021/09/20 07:42:28;;;;;;;10.20;6.15;;;;;;;;;;4878443;29;20033;-62
2021/09/20 07:44:54;;;;;;;10.77;5.75;;;;;;;;;;4877791;29;20059;-59
2021/09/20 07:47:20;;;;;;;8.15;5.00;;;;;;;;;;4878208;29;20033;-63
2021/09/20 07:49:46;;;;;;;9.45;5.30;;;;;;;;;;4877900;29;20040;-60
2021/09/20 07:52:12;;;;;;;14.25;6.75;;;;;;;;;;4877604;29;20108;-61
2021/09/20 07:54:38;;;;;;;10.43;7.03;;;;;;;;;;4877845;29;20048;-59
2021/09/20 07:57:04;;;;;;;10.40;6.70;;;;;;;;;;4877731;29;20092;-60
2021/09/20 07:59:30;;;;;;;11.43;6.97;;;;;;;;;;4877970;29;20029;-58
2021/09/20 08:01:56;;;;;;;11.48;7.25;;;;;;;;;;4877780;29;20085;-60
2021/09/20 08:04:22;;;;;;;18.35;8.32;;;;;;;;;;4877660;29;20217;-60
2021/09/20 08:06:48;;;;;;;13.50;7.30;;;;;;;;;;4877851;29;20382;-59
2021/09/20 08:09:14;;;;;;;11.60;7.47;;;;;;;;;;4877447;29;20053;-58
2021/09/20 08:11:40;;;;;;;13.57;8.35;;;;;;;;;;4877859;29;20029;-57
2021/09/20 08:14:06;;;;;;;13.60;8.15;;;;;;;;;;4877277;29;20184;-58
2021/09/20 08:16:32;;;;;;;13.82;7.70;;;;;;;;;;4877632;29;20021;-58
2021/09/20 08:18:59;;;;;;;17.95;8.73;;;;;;;;;;4877612;29;20032;-58
2021/09/20 08:21:25;;;;;;;15.90;8.15;;;;;;;;;;4877354;29;20493;-59
2021/09/20 08:23:51;;;;;;;13.38;8.10;;;;;;;;;;4876981;29;20092;-60
2021/09/20 08:26:17;;;;;;;10.32;6.53;;;;;;;;;;4860598;29;20678;-59
2021/09/20 08:28:44;;;;;;;15.88;8.15;;;;;;;;;;4877412;29;20435;-60
2021/09/20 08:31:10;;;;;;;17.42;9.30;;;;;;;;;;4877400;29;20028;-59
2021/09/20 08:33:36;;;;;;;12.80;7.45;;;;;;;;;;4877595;29;20093;-58
2021/09/20 08:36:02;;;;;;;16.25;8.93;;;;;;;;;;4877467;29;20040;-58
2021/09/20 08:38:28;;;;;;;28.77;17.52;;;;;;;;;;4877251;29;20040;-58
2021/09/20 08:40:54;;;;;;;27.98;15.00;;;;;;;;;;4877485;29;20116;-58
2021/09/20 08:43:21;;;;;;;24.42;14.40;;;;;;;;;;4877304;29;20067;-59
2021/09/20 08:45:47;;;;;;;28.77;15.38;;;;;;;;;;4877040;29;20025;-58
2021/09/20 08:48:14;;;;;;;23.38;14.00;;;;;;;;;;4877017;29;20032;-59
2021/09/20 08:50:40;;;;;;;19.00;12.05;;;;;;;;;;4876587;29;20029;-58
2021/09/20 08:53:08;;;;;;;26.02;13.60;;;;;;;;;;4876458;29;20041;-59
2021/09/20 08:55:35;;;;;;;22.17;13.30;;;;;;;;;;4877312;29;20040;-59
2021/09/20 08:58:01;;;;;;;21.00;11.70;;;;;;;;;;4875677;29;20025;-59
2021/09/20 09:00:27;;;;;;;18.60;11.77;;;;;;;;;;4872463;29;20553;-61
2021/09/20 09:02:54;;;;;;;19.00;10.20;;;;;;;;;;4875877;29;20033;-59
2021/09/20 09:05:21;;;;;;;17.42;10.70;;;;;;;;;;4876720;29;20033;-59
2021/09/20 09:07:49;;;;;;;17.00;9.73;;;;;;;;;;4876563;29;20060;-60
2021/09/20 09:10:16;;;;;;;14.70;9.13;;;;;;;;;;4876733;29;20033;-60
2021/09/20 09:12:42;;;;;;;12.45;8.93;;;;;;;;;;4876541;29;20409;-60
2021/09/20 09:15:10;;;;;;;12.77;8.32;;;;;;;;;;4876828;29;20033;-61
2021/09/20 09:17:38;;;;;;;12.20;7.47;;;;;;;;;;4876903;29;20037;-59
2021/09/20 09:20:07;;;;;;;12.40;8.18;;;;;;;;;;4877094;29;20056;-61
2021/09/20 09:22:47;;;;;;;14.90;8.45;;;;;;;;;;4876868;29;20029;-60
2021/09/20 09:25:15;;;;;;;11.95;7.55;;;;;;;;;;4877077;29;20151;-61
2021/09/20 09:27:42;;;;;;;15.13;9.45;;;;;;;;;;4876550;29;20036;-61
2021/09/20 09:30:16;;;;;;;13.35;9.30;;;;;;;;;;4876829;29;20545;-61
2021/09/20 09:32:43;;;;;;;12.77;9.13;;;;;;;;;;4876642;29;20040;-64
2021/09/20 09:35:09;;;;;;;14.23;8.23;;;;;;;;;;4876040;29;20041;-60
2021/09/20 09:37:36;;;;;;;10.82;7.72;;;;;;;;;;4876887;29;20033;-59
2021/09/20 09:40:05;;;;;;;15.13;7.90;;;;;;;;;;4876571;29;20379;-59
2021/09/20 09:42:31;;;;;;;9.07;6.93;;;;;;;;;;4876756;29;20029;-58
2021/09/20 09:44:58;;;;;;;12.98;6.97;;;;;;;;;;4876699;29;20056;-59
2021/09/20 09:47:25;;;;;;;9.73;6.07;;;;;;;;;;4877193;29;20033;-59
2021/09/20 09:50:11;;;;;;;10.98;7.05;;;;;;;;;;4876393;29;20345;-60
2021/09/20 09:52:37;;;;;;;11.57;7.43;;;;;;;;;;4863658;29;20053;-60
2021/09/20 09:55:04;;;;;;;10.52;6.72;;;;;;;;;;4876685;29;20037;-62
2021/09/20 09:57:31;;;;;;;8.57;5.75;;;;;;;;;;4876621;29;20037;-60
2021/09/20 10:00:07;;;;;;;11.00;5.80;;;;;;;;;;4876589;29;20036;-59
2021/09/20 10:02:34;;;;;;;9.85;6.57;;;;;;;;;;4877116;29;20169;-67
2021/09/20 10:05:10;;;;;;;10.55;6.20;;;;;;;;;;4879926;29;20029;-61
2021/09/20 10:07:38;;;;;;;9.93;6.43;;;;;;;;;;4880120;29;20064;-63
2021/09/20 10:10:05;;;;;;;9.38;5.32;;;;;;;;;;4880388;29;20487;-61
2021/09/20 10:12:31;;;;;;;10.48;6.30;;;;;;;;;;4880700;29;20111;-59
2021/09/20 10:14:59;;;;;;;10.25;6.90;;;;;;;;;;4879930;29;20083;-61
2021/09/20 10:17:26;;;;;;;9.13;5.32;;;;;;;;;;4863395;29;20033;-61
2021/09/20 10:19:52;;;;;;;11.60;6.18;;;;;;;;;;4879513;29;20386;-62
2021/09/20 10:22:19;;;;;;;9.45;4.97;;;;;;;;;;4879651;29;20545;-61
2021/09/20 10:24:46;;;;;;;9.13;6.63;;;;;;;;;;4880192;29;21061;-59
2021/09/20 10:27:13;;;;;;;10.00;5.60;;;;;;;;;;4879792;29;20033;-59
2021/09/20 10:29:40;;;;;;;8.70;6.07;;;;;;;;;;4879255;29;20163;-63
2021/09/20 10:32:07;;;;;;;8.82;5.70;;;;;;;;;;4879304;29;20085;-61
2021/09/20 10:34:33;;;;;;;13.45;5.90;;;;;;;;;;4879716;29;20053;-65
2021/09/20 10:37:10;;;;;;;11.23;6.63;;;;;;;;;;4879522;29;20032;-65
2021/09/20 10:39:52;;;;;;;9.73;6.30;;;;;;;;;;4879842;29;20105;-60
2021/09/20 10:42:36;;;;;;;13.98;7.40;;;;;;;;;;4879645;29;20043;-59
2021/09/20 10:45:07;;;;;;;10.00;6.60;;;;;;;;;;4879143;29;20037;-61
2021/09/20 10:47:46;;;;;;;9.95;7.20;;;;;;;;;;4879197;29;20025;-59
2021/09/20 10:50:12;;;;;;;9.70;5.18;;;;;;;;;;4879014;29;20589;-60
2021/09/20 10:52:59;;;;;;;13.10;8.65;;;;;;;;;;4878714;29;20037;-59
2021/09/20 10:55:25;;;;;;;15.40;9.13;;;;;;;;;;4866206;29;20049;-61
2021/09/20 10:58:15;;;;;;;16.73;10.05;;;;;;;;;;4879250;29;20033;-60
2021/09/20 11:00:42;;;;;;;15.32;11.45;;;;;;;;;;4878993;29;20123;-60
2021/09/20 11:03:27;;;;;;;18.50;10.73;;;;;;;;;;4878911;29;20382;-64
2021/09/20 11:06:22;;;;;;;20.83;11.98;;;;;;;;;;4878899;29;20049;-58
2021/09/20 11:09:08;;;;;;;21.02;11.55;;;;;;;;;;4802907;29;20054;-65
2021/09/20 11:11:41;;;;;;;17.50;11.45;;;;;;;;;;4803123;29;20119;-62
2021/09/20 11:14:10;;;;;;;14.02;10.43;;;;;;;;;;4802201;29;20051;-60
2021/09/20 11:16:49;;;;;;;19.17;11.48;;;;;;;;;;4802899;29;20088;-65
2021/09/20 11:19:26;;;;;;;17.33;11.80;;;;;;;;;;4802840;29;20051;-60
2021/09/20 11:22:05;;;;;;;17.33;12.70;;;;;;;;;;4803021;29;20046;-59
2021/09/20 11:24:31;;;;;;;18.27;12.80;;;;;;;;;;4802521;29;20104;-64
2021/09/20 11:26:57;;;;;;;23.17;13.30;;;;;;;;;;4802935;29;20556;-61
2021/09/20 11:29:24;;;;;;;24.55;12.35;;;;;;;;;;4803134;29;20031;-61
2021/09/20 11:31:51;;;;;;;21.90;12.85;;;;;;;;;;4802510;29;20118;-64
2021/09/20 11:34:50;;;;;;;22.65;13.48;;;;;;;;;;4802901;29;20042;-59
2021/09/20 11:37:21;;;;;;;20.17;13.95;;;;;;;;;;4766888;30;20051;-60
2021/09/20 11:39:50;;;;;;;18.42;13.07;;;;;;;;;;4766880;30;20564;-61
2021/09/20 11:42:17;;;;;;;20.52;12.00;;;;;;;;;;4766953;30;20206;-64
2021/09/20 11:44:48;;;;;;;18.90;12.95;;;;;;;;;;4788523;29;20053;-60
2021/09/20 11:47:19;;;;;;;19.73;13.38;;;;;;;;;;4838983;29;20077;-60
2021/09/20 11:49:50;;;;;;;20.95;13.38;;;;;;;;;;4839017;29;20038;-58
2021/09/20 11:52:28;;;;;;;18.02;11.60;;;;;;;;;;4838936;29;20037;-61
2021/09/20 11:54:54;;;;;;;16.20;9.05;;;;;;;;;;4838464;29;20053;-63
2021/09/20 11:57:22;;;;;;;11.85;8.95;;;;;;;;;;4838808;29;20525;-59
2021/09/20 11:59:49;;;;;;;12.30;9.07;;;;;;;;;;4838568;29;20034;-59
2021/09/20 12:02:35;;;;;;;12.50;9.50;;;;;;;;;;4838575;29;20113;-63
2021/09/20 12:05:02;;;;;;;12.70;9.43;;;;;;;;;;4838440;29;20590;-64
2021/09/20 12:07:33;;;;;;;13.95;9.32;;;;;;;;;;4838249;29;20050;-58
2021/09/20 12:10:00;;;;;;;10.82;8.32;;;;;;;;;;4838622;29;20046;-58
2021/09/20 12:12:30;;;;;;;13.00;7.40;;;;;;;;;;4839208;29;20038;-60
2021/09/20 12:15:02;;;;;;;11.38;7.45;;;;;;;;;;4877607;29;20084;-57
2021/09/20 12:17:48;;;;;;;8.45;6.20;;;;;;;;;;4877694;29;20078;-58
2021/09/20 12:20:15;;;;;;;7.43;5.70;;;;;;;;;;4877288;29;20675;-57
2021/09/20 12:22:42;;;;;;;6.40;4.85;;;;;;;;;;4877758;29;20084;-58
2021/09/20 12:25:18;;;;;;;8.80;4.93;;;;;;;;;;4878365;29;20033;-58
2021/09/20 12:27:44;;;;;;;10.95;6.20;;;;;;;;;;4877679;29;20033;-58
2021/09/20 12:30:14;;;;;;;8.98;5.50;;;;;;;;;;4877466;29;20147;-58
2021/09/20 12:32:40;;;;;;;8.13;5.30;;;;;;;;;;4877668;29;20025;-65
2021/09/20 12:35:06;;;;;;;9.32;6.00;;;;;;;;;;4877159;29;20084;-58
2021/09/20 12:37:32;;;;;;;6.95;5.13;;;;;;;;;;4877540;29;20033;-62
2021/09/20 12:40:17;;;;;;;9.07;5.45;;;;;;;;;;4877243;29;20111;-60
2021/09/20 12:42:43;;;;;;;10.77;6.35;;;;;;;;;;4877521;29;20032;-61
2021/09/20 12:45:16;;;;;;;8.68;6.00;;;;;;;;;;4877061;29;20040;-58
2021/09/20 12:47:42;;;;;;;8.48;6.15;;;;;;;;;;4860639;29;20029;-61
2021/09/20 12:50:11;;;;;;;9.30;6.25;;;;;;;;;;4876639;29;20033;-62
2021/09/20 12:52:45;;;;;;;8.65;6.28;;;;;;;;;;4877102;29;20040;-61
2021/09/20 12:55:17;;;;;;;8.32;6.00;;;;;;;;;;4877403;29;20064;-60
2021/09/20 12:57:50;;;;;;;7.57;5.80;;;;;;;;;;4877179;29;20036;-58
2021/09/20 13:00:17;;;;;;;9.05;6.13;;;;;;;;;;4877031;29;20076;-60
2021/09/20 13:02:43;;;;;;;10.48;6.20;;;;;;;;;;4877157;29;20565;-57
2021/09/20 13:05:11;;;;;;;7.53;5.70;;;;;;;;;;4876758;29;20033;-62
2021/09/20 13:07:37;;;;;;;9.35;5.30;;;;;;;;;;4876611;29;20088;-60
2021/09/20 13:10:05;;;;;;;8.50;5.38;;;;;;;;;;4876770;29;20494;-58
2021/09/20 13:12:33;;;;;;;6.38;4.68;;;;;;;;;;4877194;29;20072;-57
2021/09/20 13:15:00;;;;;;;6.75;4.50;;;;;;;;;;4876844;29;20485;-61
2021/09/20 13:17:34;;;;;;;7.82;3.80;;;;;;;;;;4876343;29;20096;-59
2021/09/20 13:20:03;;;;;;;4.85;3.70;;;;;;;;;;4876352;29;20033;-64
2021/09/20 13:22:32;;;;;;;6.53;3.55;;;;;;;;;;4876267;29;20025;-59
2021/09/20 13:24:59;;;;;;;5.88;3.47;;;;;;;;;;4876759;29;20032;-58
2021/09/20 13:27:25;;;;;;;3.83;2.95;;;;;;;;;;4876346;29;20037;-59
2021/09/20 13:29:51;;;;;;;5.13;2.90;;;;;;;;;;4876446;29;20036;-62
2021/09/20 13:32:17;;;;;;;4.25;2.78;;;;;;;;;;4876407;29;20033;-59
2021/09/20 13:34:44;;;;;;;4.28;2.28;;;;;;;;;;4876409;29;20067;-60
2021/09/20 13:37:11;;;;;;;3.95;2.50;;;;;;;;;;4876685;29;20021;-61
2021/09/20 13:39:37;;;;;;;4.85;2.63;;;;;;;;;;4880245;29;20036;-59
2021/09/20 13:42:03;;;;;;;4.18;2.20;;;;;;;;;;4880663;29;20465;-60
2021/09/20 13:44:29;;;;;;;3.05;2.05;;;;;;;;;;4880466;29;20052;-64
2021/09/20 13:46:56;;;;;;;3.60;2.40;;;;;;;;;;4880476;29;20096;-65
2021/09/20 13:49:22;;;;;;;6.25;2.22;;;;;;;;;;4879833;29;20033;-60
2021/09/20 13:51:48;;;;;;;6.55;2.38;;;;;;;;;;4880089;29;20040;-65
2021/09/20 13:54:15;;;;;;;2.97;2.10;;;;;;;;;;4880156;29;20490;-61
2021/09/20 13:56:41;;;;;;;5.70;2.20;;;;;;;;;;4863435;29;20029;-60
2021/09/20 13:59:07;;;;;;;4.35;2.10;;;;;;;;;;4880134;29;20405;-58
2021/09/20 14:01:33;;;;;;;3.03;1.95;;;;;;;;;;4879896;29;20418;-62
2021/09/20 14:03:59;;;;;;;5.35;2.53;;;;;;;;;;4879408;29;20029;-59
2021/09/20 14:06:25;;;;;;;4.78;2.53;;;;;;;;;;4880336;29;20386;-61
2021/09/20 14:08:51;;;;;;;2.80;2.10;;;;;;;;;;4879732;29;20057;-60
2021/09/20 14:11:17;;;;;;;5.57;2.20;;;;;;;;;;4879885;29;20204;-59
2021/09/20 14:13:43;;;;;;;3.67;2.55;;;;;;;;;;4879756;29;20045;-58
2021/09/20 14:16:10;;;;;;;3.20;1.70;;;;;;;;;;4879889;29;20072;-58
2021/09/20 14:18:36;;;;;;;3.72;2.08;;;;;;;;;;4879492;29;20048;-60
2021/09/20 14:21:02;;;;;;;3.70;2.05;;;;;;;;;;4879854;29;20124;-58
2021/09/20 14:23:28;;;;;;;4.88;2.85;;;;;;;;;;4879594;29;20036;-62
2021/09/20 14:25:54;;;;;;;3.25;2.03;;;;;;;;;;4880243;29;20373;-61
2021/09/20 14:28:20;;;;;;;3.42;2.40;;;;;;;;;;4879381;29;20504;-59
2021/09/20 14:30:47;;;;;;;2.83;2.10;;;;;;;;;;4879357;29;20378;-59
2021/09/20 14:33:13;;;;;;;3.83;2.47;;;;;;;;;;4879216;29;20036;-59
2021/09/20 14:35:39;;;;;;;4.30;2.33;;;;;;;;;;4879565;29;20497;-57
2021/09/20 14:38:06;;;;;;;3.10;2.10;;;;;;;;;;4879196;29;20033;-62